sensor_id;sensor_type;location;lat;lon;timestamp;temperature;humidity
4399;DHT22;2213;49.720;7.296;2022-10-16T00:01:48;13.20;99.90
4399;DHT22;2213;49.720;7.296;2022-10-16T00:04:17;13.20;99.90
4399;DHT22;2213;49.720;7.296;2022-10-16T00:06:46;13.20;99.90
4399;DHT22;2213;49.720;7.296;2022-10-16T00:09:14;13.20;99.90
4399;DHT22;2213;49.720;7.296;2022-10-16T00:11:43;13.10;99.90
4399;DHT22;2213;49.720;7.296;2022-10-16T00:14:14;13.10;99.90
4399;DHT22;2213;49.720;7.296;2022-10-16T00:16:45;13.10;99.90
4399;DHT22;2213;49.720;7.296;2022-10-16T00:19:15;13.10;99.90
4399;DHT22;2213;49.720;7.296;2022-10-16T00:21:44;13.10;99.90
4399;DHT22;2213;49.720;7.296;2022-10-16T00:24:13;13.10;99.90
4399;DHT22;2213;49.720;7.296;2022-10-16T00:26:42;13.10;99.90
4399;DHT22;2213;49.720;7.296;2022-10-16T00:29:11;13.10;99.90
4399;DHT22;2213;49.720;7.296;2022-10-16T00:31:40;13.10;99.90
4399;DHT22;2213;49.720;7.296;2022-10-16T00:34:09;13.10;99.90
4399;DHT22;2213;49.720;7.296;2022-10-16T00:36:39;13.10;99.90
4399;DHT22;2213;49.720;7.296;2022-10-16T00:39:07;13.10;99.90
4399;DHT22;2213;49.720;7.296;2022-10-16T00:41:36;13.10;99.90
4399;DHT22;2213;49.720;7.296;2022-10-16T00:47:17;13.10;99.90
4399;DHT22;2213;49.720;7.296;2022-10-16T00:49:50;13.20;99.90
4399;DHT22;2213;49.720;7.296;2022-10-16T00:52:24;13.10;99.90
4399;DHT22;2213;49.720;7.296;2022-10-16T00:54:53;13.10;99.90
4399;DHT22;2213;49.720;7.296;2022-10-16T00:57:24;13.10;99.90
4399;DHT22;2213;49.720;7.296;2022-10-16T00:59:53;13.10;99.90
4399;DHT22;2213;49.720;7.296;2022-10-16T01:02:23;13.10;99.90
4399;DHT22;2213;49.720;7.296;2022-10-16T01:04:53;13.10;99.90
4399;DHT22;2213;49.720;7.296;2022-10-16T01:07:33;13.10;99.90
4399;DHT22;2213;49.720;7.296;2022-10-16T01:10:17;13.00;99.90
4399;DHT22;2213;49.720;7.296;2022-10-16T01:12:57;13.10;99.90
4399;DHT22;2213;49.720;7.296;2022-10-16T01:15:32;13.10;99.90
4399;DHT22;2213;49.720;7.296;2022-10-16T01:18:08;13.10;99.90
4399;DHT22;2213;49.720;7.296;2022-10-16T01:20:47;13.10;99.90
4399;DHT22;2213;49.720;7.296;2022-10-16T01:23:38;13.20;99.90
4399;DHT22;2213;49.720;7.296;2022-10-16T01:26:36;13.20;99.90
4399;DHT22;2213;49.720;7.296;2022-10-16T01:29:16;13.10;99.90
4399;DHT22;2213;49.720;7.296;2022-10-16T01:31:55;13.30;99.90
4399;DHT22;2213;49.720;7.296;2022-10-16T01:34:33;13.20;99.90
4399;DHT22;2213;49.720;7.296;2022-10-16T01:37:09;13.20;99.90
4399;DHT22;2213;49.720;7.296;2022-10-16T01:39:47;13.20;99.90
4399;DHT22;2213;49.720;7.296;2022-10-16T01:42:21;13.20;99.90
4399;DHT22;2213;49.720;7.296;2022-10-16T01:44:55;13.20;99.90
4399;DHT22;2213;49.720;7.296;2022-10-16T01:47:27;13.20;99.90
4399;DHT22;2213;49.720;7.296;2022-10-16T01:50:01;13.20;99.90
4399;DHT22;2213;49.720;7.296;2022-10-16T01:52:37;13.20;99.90
4399;DHT22;2213;49.720;7.296;2022-10-16T01:55:09;13.20;99.90
4399;DHT22;2213;49.720;7.296;2022-10-16T01:57:44;13.20;99.90
4399;DHT22;2213;49.720;7.296;2022-10-16T02:00:21;13.20;99.90
4399;DHT22;2213;49.720;7.296;2022-10-16T02:02:53;13.20;99.90
4399;DHT22;2213;49.720;7.296;2022-10-16T02:05:28;13.20;99.90
4399;DHT22;2213;49.720;7.296;2022-10-16T02:08:02;13.20;99.90
4399;DHT22;2213;49.720;7.296;2022-10-16T02:10:32;13.30;99.90
4399;DHT22;2213;49.720;7.296;2022-10-16T02:13:06;13.20;99.90
4399;DHT22;2213;49.720;7.296;2022-10-16T02:15:40;13.20;99.90
4399;DHT22;2213;49.720;7.296;2022-10-16T02:18:09;13.20;99.90
4399;DHT22;2213;49.720;7.296;2022-10-16T02:20:43;13.20;99.90
4399;DHT22;2213;49.720;7.296;2022-10-16T02:23:27;13.20;99.90
4399;DHT22;2213;49.720;7.296;2022-10-16T02:26:03;13.30;99.90
4399;DHT22;2213;49.720;7.296;2022-10-16T02:28:42;13.30;99.90
4399;DHT22;2213;49.720;7.296;2022-10-16T02:31:21;13.30;99.90
4399;DHT22;2213;49.720;7.296;2022-10-16T02:33:56;13.30;99.90
4399;DHT22;2213;49.720;7.296;2022-10-16T02:36:27;13.30;99.90
4399;DHT22;2213;49.720;7.296;2022-10-16T02:38:56;13.40;99.90
4399;DHT22;2213;49.720;7.296;2022-10-16T02:41:27;13.30;99.90
4399;DHT22;2213;49.720;7.296;2022-10-16T02:43:56;13.30;99.90
4399;DHT22;2213;49.720;7.296;2022-10-16T02:46:27;13.30;99.90
4399;DHT22;2213;49.720;7.296;2022-10-16T02:48:55;13.40;99.90
4399;DHT22;2213;49.720;7.296;2022-10-16T02:51:24;13.40;99.90
4399;DHT22;2213;49.720;7.296;2022-10-16T02:53:54;13.40;99.90
4399;DHT22;2213;49.720;7.296;2022-10-16T02:56:23;13.40;99.90
4399;DHT22;2213;49.720;7.296;2022-10-16T02:58:52;13.40;99.90
4399;DHT22;2213;49.720;7.296;2022-10-16T03:01:21;13.50;99.90
4399;DHT22;2213;49.720;7.296;2022-10-16T03:03:52;13.50;99.90
4399;DHT22;2213;49.720;7.296;2022-10-16T03:06:21;13.50;99.90
4399;DHT22;2213;49.720;7.296;2022-10-16T03:08:51;13.50;99.90
4399;DHT22;2213;49.720;7.296;2022-10-16T03:11:19;13.50;99.90
4399;DHT22;2213;49.720;7.296;2022-10-16T03:13:49;13.50;99.90
4399;DHT22;2213;49.720;7.296;2022-10-16T03:16:17;13.50;99.90
4399;DHT22;2213;49.720;7.296;2022-10-16T03:18:48;13.60;99.90
4399;DHT22;2213;49.720;7.296;2022-10-16T03:21:19;13.50;99.90
4399;DHT22;2213;49.720;7.296;2022-10-16T03:23:48;13.50;99.90
4399;DHT22;2213;49.720;7.296;2022-10-16T03:26:17;13.50;99.90
4399;DHT22;2213;49.720;7.296;2022-10-16T03:28:48;13.60;99.90
4399;DHT22;2213;49.720;7.296;2022-10-16T03:31:17;13.60;99.90
4399;DHT22;2213;49.720;7.296;2022-10-16T03:33:46;13.50;99.90
4399;DHT22;2213;49.720;7.296;2022-10-16T03:36:18;13.50;99.90
4399;DHT22;2213;49.720;7.296;2022-10-16T03:38:47;13.60;99.90
4399;DHT22;2213;49.720;7.296;2022-10-16T03:41:16;13.50;99.90
4399;DHT22;2213;49.720;7.296;2022-10-16T03:43:47;13.60;99.90
4399;DHT22;2213;49.720;7.296;2022-10-16T03:46:16;13.50;99.90
4399;DHT22;2213;49.720;7.296;2022-10-16T03:48:45;13.50;99.90
4399;DHT22;2213;49.720;7.296;2022-10-16T03:51:14;13.50;99.90
4399;DHT22;2213;49.720;7.296;2022-10-16T03:53:45;13.50;99.90
4399;DHT22;2213;49.720;7.296;2022-10-16T03:56:13;13.50;99.90
4399;DHT22;2213;49.720;7.296;2022-10-16T03:58:42;13.60;99.90
4399;DHT22;2213;49.720;7.296;2022-10-16T04:01:11;13.60;99.90
4399;DHT22;2213;49.720;7.296;2022-10-16T04:03:40;13.60;99.90
4399;DHT22;2213;49.720;7.296;2022-10-16T04:06:09;13.60;99.90
4399;DHT22;2213;49.720;7.296;2022-10-16T04:08:38;13.60;99.90
4399;DHT22;2213;49.720;7.296;2022-10-16T04:11:08;13.50;99.90
4399;DHT22;2213;49.720;7.296;2022-10-16T04:13:37;13.50;99.90
4399;DHT22;2213;49.720;7.296;2022-10-16T04:16:06;13.50;99.90
4399;DHT22;2213;49.720;7.296;2022-10-16T04:18:35;13.50;99.90
4399;DHT22;2213;49.720;7.296;2022-10-16T04:21:05;13.50;99.90
4399;DHT22;2213;49.720;7.296;2022-10-16T04:23:34;13.50;99.90
4399;DHT22;2213;49.720;7.296;2022-10-16T04:26:03;13.60;99.90
4399;DHT22;2213;49.720;7.296;2022-10-16T04:28:33;13.60;99.90
4399;DHT22;2213;49.720;7.296;2022-10-16T04:31:03;13.60;99.90
4399;DHT22;2213;49.720;7.296;2022-10-16T04:33:33;13.60;99.90
4399;DHT22;2213;49.720;7.296;2022-10-16T04:36:03;13.70;99.90
4399;DHT22;2213;49.720;7.296;2022-10-16T04:38:32;13.60;99.90
4399;DHT22;2213;49.720;7.296;2022-10-16T04:41:01;13.70;99.90
4399;DHT22;2213;49.720;7.296;2022-10-16T04:43:33;13.70;99.90
4399;DHT22;2213;49.720;7.296;2022-10-16T04:46:03;13.70;99.90
4399;DHT22;2213;49.720;7.296;2022-10-16T04:48:35;13.70;99.90
4399;DHT22;2213;49.720;7.296;2022-10-16T04:51:05;13.70;99.90
4399;DHT22;2213;49.720;7.296;2022-10-16T04:53:33;13.70;99.90
4399;DHT22;2213;49.720;7.296;2022-10-16T04:56:02;13.70;99.90
4399;DHT22;2213;49.720;7.296;2022-10-16T04:58:35;13.80;99.90
4399;DHT22;2213;49.720;7.296;2022-10-16T05:01:06;13.70;99.90
4399;DHT22;2213;49.720;7.296;2022-10-16T05:03:37;13.70;99.90
4399;DHT22;2213;49.720;7.296;2022-10-16T05:06:07;13.70;99.90
4399;DHT22;2213;49.720;7.296;2022-10-16T05:08:36;13.70;99.90
4399;DHT22;2213;49.720;7.296;2022-10-16T05:11:06;13.70;99.90
4399;DHT22;2213;49.720;7.296;2022-10-16T05:13:36;13.70;99.90
4399;DHT22;2213;49.720;7.296;2022-10-16T05:16:06;13.70;99.90
4399;DHT22;2213;49.720;7.296;2022-10-16T05:18:34;13.70;99.90
4399;DHT22;2213;49.720;7.296;2022-10-16T05:21:03;13.70;99.90
4399;DHT22;2213;49.720;7.296;2022-10-16T05:23:32;13.70;99.90
4399;DHT22;2213;49.720;7.296;2022-10-16T05:26:04;13.80;99.90
4399;DHT22;2213;49.720;7.296;2022-10-16T05:28:36;13.70;99.90
4399;DHT22;2213;49.720;7.296;2022-10-16T05:31:06;13.70;99.90
4399;DHT22;2213;49.720;7.296;2022-10-16T05:33:36;13.70;99.90
4399;DHT22;2213;49.720;7.296;2022-10-16T05:36:07;13.70;99.90
4399;DHT22;2213;49.720;7.296;2022-10-16T05:38:37;13.70;99.90
4399;DHT22;2213;49.720;7.296;2022-10-16T05:41:06;13.80;99.90
4399;DHT22;2213;49.720;7.296;2022-10-16T05:43:36;13.70;99.90
4399;DHT22;2213;49.720;7.296;2022-10-16T05:46:06;13.70;99.90
4399;DHT22;2213;49.720;7.296;2022-10-16T05:48:35;13.80;99.90
4399;DHT22;2213;49.720;7.296;2022-10-16T05:51:06;13.80;99.90
4399;DHT22;2213;49.720;7.296;2022-10-16T05:53:39;13.70;99.90
4399;DHT22;2213;49.720;7.296;2022-10-16T05:56:12;13.70;99.90
4399;DHT22;2213;49.720;7.296;2022-10-16T05:58:44;13.70;99.90
4399;DHT22;2213;49.720;7.296;2022-10-16T06:01:15;13.70;99.90
4399;DHT22;2213;49.720;7.296;2022-10-16T06:03:45;13.70;99.90
4399;DHT22;2213;49.720;7.296;2022-10-16T06:06:15;13.80;99.90
4399;DHT22;2213;49.720;7.296;2022-10-16T06:08:46;13.70;99.90
4399;DHT22;2213;49.720;7.296;2022-10-16T06:11:16;13.70;99.90
4399;DHT22;2213;49.720;7.296;2022-10-16T06:13:51;13.80;99.90
4399;DHT22;2213;49.720;7.296;2022-10-16T06:16:21;13.80;99.90
4399;DHT22;2213;49.720;7.296;2022-10-16T06:18:51;13.80;99.90
4399;DHT22;2213;49.720;7.296;2022-10-16T06:21:24;13.80;99.90
4399;DHT22;2213;49.720;7.296;2022-10-16T06:23:54;13.80;99.90
4399;DHT22;2213;49.720;7.296;2022-10-16T06:26:27;13.80;99.90
4399;DHT22;2213;49.720;7.296;2022-10-16T06:29:00;13.80;99.90
4399;DHT22;2213;49.720;7.296;2022-10-16T06:31:30;13.80;99.90
4399;DHT22;2213;49.720;7.296;2022-10-16T06:34:00;13.80;99.90
4399;DHT22;2213;49.720;7.296;2022-10-16T06:36:40;13.80;99.90
4399;DHT22;2213;49.720;7.296;2022-10-16T06:39:13;13.90;99.90
4399;DHT22;2213;49.720;7.296;2022-10-16T06:41:42;13.80;99.90
4399;DHT22;2213;49.720;7.296;2022-10-16T06:44:13;13.80;99.90
4399;DHT22;2213;49.720;7.296;2022-10-16T06:46:41;13.80;99.90
4399;DHT22;2213;49.720;7.296;2022-10-16T06:49:10;13.80;99.90
4399;DHT22;2213;49.720;7.296;2022-10-16T06:51:39;13.90;99.90
4399;DHT22;2213;49.720;7.296;2022-10-16T06:54:09;13.90;99.90
4399;DHT22;2213;49.720;7.296;2022-10-16T06:56:38;13.90;99.90
4399;DHT22;2213;49.720;7.296;2022-10-16T06:59:07;13.90;99.90
4399;DHT22;2213;49.720;7.296;2022-10-16T07:01:37;13.90;99.90
4399;DHT22;2213;49.720;7.296;2022-10-16T07:04:05;13.90;99.90
4399;DHT22;2213;49.720;7.296;2022-10-16T07:06:36;13.90;99.90
4399;DHT22;2213;49.720;7.296;2022-10-16T07:09:06;13.90;99.90
4399;DHT22;2213;49.720;7.296;2022-10-16T07:11:38;13.90;99.90
4399;DHT22;2213;49.720;7.296;2022-10-16T07:14:16;14.00;99.90
4399;DHT22;2213;49.720;7.296;2022-10-16T07:16:47;13.90;99.90
4399;DHT22;2213;49.720;7.296;2022-10-16T07:19:16;14.00;99.90
4399;DHT22;2213;49.720;7.296;2022-10-16T07:21:45;14.00;99.90
4399;DHT22;2213;49.720;7.296;2022-10-16T07:24:14;14.00;99.90
4399;DHT22;2213;49.720;7.296;2022-10-16T07:26:45;14.00;99.90
4399;DHT22;2213;49.720;7.296;2022-10-16T07:29:15;14.00;99.90
4399;DHT22;2213;49.720;7.296;2022-10-16T07:31:48;14.00;99.90
4399;DHT22;2213;49.720;7.296;2022-10-16T07:34:18;14.10;99.90
4399;DHT22;2213;49.720;7.296;2022-10-16T07:36:48;14.00;99.90
4399;DHT22;2213;49.720;7.296;2022-10-16T07:39:17;14.10;99.90
4399;DHT22;2213;49.720;7.296;2022-10-16T07:41:47;14.10;99.90
4399;DHT22;2213;49.720;7.296;2022-10-16T07:44:16;14.10;99.90
4399;DHT22;2213;49.720;7.296;2022-10-16T07:46:44;14.10;99.90
4399;DHT22;2213;49.720;7.296;2022-10-16T07:49:15;14.10;99.90
4399;DHT22;2213;49.720;7.296;2022-10-16T07:51:45;14.10;99.90
4399;DHT22;2213;49.720;7.296;2022-10-16T07:54:14;14.10;99.90
4399;DHT22;2213;49.720;7.296;2022-10-16T07:56:42;14.10;99.90
4399;DHT22;2213;49.720;7.296;2022-10-16T07:59:12;14.10;99.90
4399;DHT22;2213;49.720;7.296;2022-10-16T08:01:41;14.10;99.90
4399;DHT22;2213;49.720;7.296;2022-10-16T08:04:11;14.20;99.90
4399;DHT22;2213;49.720;7.296;2022-10-16T08:06:41;14.20;99.90
4399;DHT22;2213;49.720;7.296;2022-10-16T08:09:10;14.30;99.90
4399;DHT22;2213;49.720;7.296;2022-10-16T08:11:38;14.30;99.90
4399;DHT22;2213;49.720;7.296;2022-10-16T08:14:07;14.30;99.90
4399;DHT22;2213;49.720;7.296;2022-10-16T08:16:38;14.30;99.90
4399;DHT22;2213;49.720;7.296;2022-10-16T08:19:07;14.30;99.90
4399;DHT22;2213;49.720;7.296;2022-10-16T08:21:36;14.40;99.90
4399;DHT22;2213;49.720;7.296;2022-10-16T08:24:07;14.30;99.90
4399;DHT22;2213;49.720;7.296;2022-10-16T08:26:36;14.30;99.90
4399;DHT22;2213;49.720;7.296;2022-10-16T08:29:04;14.40;99.90
4399;DHT22;2213;49.720;7.296;2022-10-16T08:31:34;14.40;99.90
4399;DHT22;2213;49.720;7.296;2022-10-16T08:34:03;14.40;99.90
4399;DHT22;2213;49.720;7.296;2022-10-16T08:36:31;14.40;99.90
4399;DHT22;2213;49.720;7.296;2022-10-16T08:39:00;14.40;99.90
4399;DHT22;2213;49.720;7.296;2022-10-16T08:42:01;14.40;99.90
4399;DHT22;2213;49.720;7.296;2022-10-16T08:45:03;14.50;99.90
4399;DHT22;2213;49.720;7.296;2022-10-16T08:47:58;14.50;99.90
4399;DHT22;2213;49.720;7.296;2022-10-16T08:50:38;14.60;99.90
4399;DHT22;2213;49.720;7.296;2022-10-16T08:53:20;14.60;99.90
4399;DHT22;2213;49.720;7.296;2022-10-16T08:55:53;14.60;99.90
4399;DHT22;2213;49.720;7.296;2022-10-16T08:58:28;14.60;99.90
4399;DHT22;2213;49.720;7.296;2022-10-16T09:01:00;14.70;99.90
4399;DHT22;2213;49.720;7.296;2022-10-16T09:03:43;14.70;99.90
4399;DHT22;2213;49.720;7.296;2022-10-16T09:06:53;14.70;99.90
4399;DHT22;2213;49.720;7.296;2022-10-16T09:09:41;14.80;99.90
4399;DHT22;2213;49.720;7.296;2022-10-16T09:12:26;14.90;99.90
4399;DHT22;2213;49.720;7.296;2022-10-16T09:15:15;15.00;99.90
4399;DHT22;2213;49.720;7.296;2022-10-16T09:17:58;15.10;99.90
4399;DHT22;2213;49.720;7.296;2022-10-16T09:20:44;15.10;99.90
4399;DHT22;2213;49.720;7.296;2022-10-16T09:23:24;15.30;99.90
4399;DHT22;2213;49.720;7.296;2022-10-16T09:25:58;15.30;99.90
4399;DHT22;2213;49.720;7.296;2022-10-16T09:28:28;15.30;99.90
4399;DHT22;2213;49.720;7.296;2022-10-16T09:30:58;15.30;99.90
4399;DHT22;2213;49.720;7.296;2022-10-16T09:33:32;15.40;99.90
4399;DHT22;2213;49.720;7.296;2022-10-16T09:36:05;15.40;99.90
4399;DHT22;2213;49.720;7.296;2022-10-16T09:38:35;15.50;99.90
4399;DHT22;2213;49.720;7.296;2022-10-16T09:41:15;15.50;99.90
4399;DHT22;2213;49.720;7.296;2022-10-16T09:43:51;15.60;99.90
4399;DHT22;2213;49.720;7.296;2022-10-16T09:46:27;15.70;99.90
4399;DHT22;2213;49.720;7.296;2022-10-16T09:48:59;15.80;99.90
4399;DHT22;2213;49.720;7.296;2022-10-16T09:51:32;15.90;99.90
4399;DHT22;2213;49.720;7.296;2022-10-16T09:54:19;15.80;99.90
4399;DHT22;2213;49.720;7.296;2022-10-16T09:56:51;15.90;99.90
4399;DHT22;2213;49.720;7.296;2022-10-16T09:59:22;16.00;99.90
4399;DHT22;2213;49.720;7.296;2022-10-16T10:01:56;16.10;99.90
4399;DHT22;2213;49.720;7.296;2022-10-16T10:04:39;16.20;99.90
4399;DHT22;2213;49.720;7.296;2022-10-16T10:07:18;16.10;99.90
4399;DHT22;2213;49.720;7.296;2022-10-16T10:09:53;16.10;99.90
4399;DHT22;2213;49.720;7.296;2022-10-16T10:12:25;16.20;99.90
4399;DHT22;2213;49.720;7.296;2022-10-16T10:14:58;16.30;99.90
4399;DHT22;2213;49.720;7.296;2022-10-16T10:17:46;16.40;99.90
4399;DHT22;2213;49.720;7.296;2022-10-16T10:20:26;16.50;99.90
4399;DHT22;2213;49.720;7.296;2022-10-16T10:23:00;16.50;99.90
4399;DHT22;2213;49.720;7.296;2022-10-16T10:25:50;16.60;99.90
4399;DHT22;2213;49.720;7.296;2022-10-16T10:28:52;16.60;99.90
4399;DHT22;2213;49.720;7.296;2022-10-16T10:31:36;16.70;99.90
4399;DHT22;2213;49.720;7.296;2022-10-16T10:34:39;16.70;99.90
4399;DHT22;2213;49.720;7.296;2022-10-16T10:37:37;16.70;99.90
4399;DHT22;2213;49.720;7.296;2022-10-16T10:40:34;16.70;99.90
4399;DHT22;2213;49.720;7.296;2022-10-16T10:43:25;16.70;99.90
4399;DHT22;2213;49.720;7.296;2022-10-16T10:46:12;16.70;99.90
4399;DHT22;2213;49.720;7.296;2022-10-16T10:49:07;16.70;99.90
4399;DHT22;2213;49.720;7.296;2022-10-16T10:51:52;16.70;99.90
4399;DHT22;2213;49.720;7.296;2022-10-16T10:54:34;16.80;99.90
4399;DHT22;2213;49.720;7.296;2022-10-16T10:57:12;16.80;99.90
4399;DHT22;2213;49.720;7.296;2022-10-16T11:00:06;16.80;99.90
4399;DHT22;2213;49.720;7.296;2022-10-16T11:02:50;16.70;99.90
4399;DHT22;2213;49.720;7.296;2022-10-16T11:05:38;16.90;99.90
4399;DHT22;2213;49.720;7.296;2022-10-16T11:08:17;16.90;99.90
4399;DHT22;2213;49.720;7.296;2022-10-16T11:10:53;16.90;99.90
4399;DHT22;2213;49.720;7.296;2022-10-16T11:13:31;16.90;99.90
4399;DHT22;2213;49.720;7.296;2022-10-16T11:16:11;17.00;99.90
4399;DHT22;2213;49.720;7.296;2022-10-16T11:18:52;16.80;99.90
4399;DHT22;2213;49.720;7.296;2022-10-16T11:21:30;17.00;99.90
4399;DHT22;2213;49.720;7.296;2022-10-16T11:24:23;17.00;99.90
4399;DHT22;2213;49.720;7.296;2022-10-16T11:27:06;17.10;99.90
4399;DHT22;2213;49.720;7.296;2022-10-16T11:29:44;17.00;99.90
4399;DHT22;2213;49.720;7.296;2022-10-16T11:32:23;17.00;99.90
4399;DHT22;2213;49.720;7.296;2022-10-16T11:35:02;17.00;99.90
4399;DHT22;2213;49.720;7.296;2022-10-16T11:37:42;17.00;99.90
4399;DHT22;2213;49.720;7.296;2022-10-16T11:40:24;17.00;99.90
4399;DHT22;2213;49.720;7.296;2022-10-16T11:43:04;17.10;99.90
4399;DHT22;2213;49.720;7.296;2022-10-16T11:45:50;17.20;99.90
4399;DHT22;2213;49.720;7.296;2022-10-16T11:48:26;17.30;99.90
4399;DHT22;2213;49.720;7.296;2022-10-16T11:51:06;17.30;99.90
4399;DHT22;2213;49.720;7.296;2022-10-16T11:53:51;17.40;99.90
4399;DHT22;2213;49.720;7.296;2022-10-16T11:56:39;17.40;99.90
4399;DHT22;2213;49.720;7.296;2022-10-16T11:59:20;17.40;99.90
4399;DHT22;2213;49.720;7.296;2022-10-16T12:02:03;17.30;99.90
4399;DHT22;2213;49.720;7.296;2022-10-16T12:05:01;17.40;99.90
4399;DHT22;2213;49.720;7.296;2022-10-16T12:07:49;17.40;99.90
4399;DHT22;2213;49.720;7.296;2022-10-16T12:10:28;17.40;99.90
4399;DHT22;2213;49.720;7.296;2022-10-16T12:13:29;17.40;99.90
4399;DHT22;2213;49.720;7.296;2022-10-16T12:16:20;17.50;99.90
4399;DHT22;2213;49.720;7.296;2022-10-16T12:19:10;17.50;99.90
4399;DHT22;2213;49.720;7.296;2022-10-16T12:21:41;17.50;99.90
4399;DHT22;2213;49.720;7.296;2022-10-16T12:24:34;17.60;99.90
4399;DHT22;2213;49.720;7.296;2022-10-16T12:27:19;17.60;99.90
4399;DHT22;2213;49.720;7.296;2022-10-16T12:30:21;17.60;99.90
4399;DHT22;2213;49.720;7.296;2022-10-16T12:32:58;17.70;99.90
4399;DHT22;2213;49.720;7.296;2022-10-16T12:35:32;17.70;99.90
4399;DHT22;2213;49.720;7.296;2022-10-16T12:38:07;17.70;99.90
4399;DHT22;2213;49.720;7.296;2022-10-16T12:40:47;17.70;99.90
4399;DHT22;2213;49.720;7.296;2022-10-16T12:43:28;17.60;99.90
4399;DHT22;2213;49.720;7.296;2022-10-16T12:46:34;17.60;99.90
4399;DHT22;2213;49.720;7.296;2022-10-16T12:49:21;17.70;99.90
4399;DHT22;2213;49.720;7.296;2022-10-16T12:51:57;17.70;99.90
4399;DHT22;2213;49.720;7.296;2022-10-16T12:54:29;17.60;99.90
4399;DHT22;2213;49.720;7.296;2022-10-16T12:57:13;17.60;99.90
4399;DHT22;2213;49.720;7.296;2022-10-16T13:00:03;17.60;99.90
4399;DHT22;2213;49.720;7.296;2022-10-16T13:02:53;17.50;99.90
4399;DHT22;2213;49.720;7.296;2022-10-16T13:06:09;17.50;99.90
4399;DHT22;2213;49.720;7.296;2022-10-16T13:09:19;17.50;99.90
4399;DHT22;2213;49.720;7.296;2022-10-16T13:12:16;17.50;99.90
4399;DHT22;2213;49.720;7.296;2022-10-16T13:15:23;17.50;99.90
4399;DHT22;2213;49.720;7.296;2022-10-16T13:18:06;17.60;99.90
4399;DHT22;2213;49.720;7.296;2022-10-16T13:20:57;17.60;99.90
4399;DHT22;2213;49.720;7.296;2022-10-16T13:23:52;17.60;99.90
4399;DHT22;2213;49.720;7.296;2022-10-16T13:26:35;17.60;99.90
4399;DHT22;2213;49.720;7.296;2022-10-16T13:29:12;17.60;99.90
4399;DHT22;2213;49.720;7.296;2022-10-16T13:31:43;17.60;99.90
4399;DHT22;2213;49.720;7.296;2022-10-16T13:34:22;17.70;99.90
4399;DHT22;2213;49.720;7.296;2022-10-16T13:36:52;17.70;99.90
4399;DHT22;2213;49.720;7.296;2022-10-16T13:39:26;17.70;99.90
4399;DHT22;2213;49.720;7.296;2022-10-16T13:42:12;17.60;99.90
4399;DHT22;2213;49.720;7.296;2022-10-16T13:44:55;17.70;99.90
4399;DHT22;2213;49.720;7.296;2022-10-16T13:47:47;17.70;99.90
4399;DHT22;2213;49.720;7.296;2022-10-16T13:50:31;17.70;99.90
4399;DHT22;2213;49.720;7.296;2022-10-16T13:53:04;17.70;99.90
4399;DHT22;2213;49.720;7.296;2022-10-16T13:55:35;17.70;99.90
4399;DHT22;2213;49.720;7.296;2022-10-16T13:58:14;17.70;99.90
4399;DHT22;2213;49.720;7.296;2022-10-16T14:00:54;17.70;99.90
4399;DHT22;2213;49.720;7.296;2022-10-16T14:03:26;17.70;99.90
4399;DHT22;2213;49.720;7.296;2022-10-16T14:06:00;17.70;99.90
4399;DHT22;2213;49.720;7.296;2022-10-16T14:08:31;17.70;99.90
4399;DHT22;2213;49.720;7.296;2022-10-16T14:11:01;17.70;99.90
4399;DHT22;2213;49.720;7.296;2022-10-16T14:13:33;17.70;99.90
4399;DHT22;2213;49.720;7.296;2022-10-16T14:16:08;17.70;99.90
4399;DHT22;2213;49.720;7.296;2022-10-16T14:18:40;17.70;99.90
4399;DHT22;2213;49.720;7.296;2022-10-16T14:21:18;17.70;99.90
4399;DHT22;2213;49.720;7.296;2022-10-16T14:23:47;17.70;99.90
4399;DHT22;2213;49.720;7.296;2022-10-16T14:26:19;17.70;99.90
4399;DHT22;2213;49.720;7.296;2022-10-16T14:29:04;17.60;99.90
4399;DHT22;2213;49.720;7.296;2022-10-16T14:31:39;17.60;99.90
4399;DHT22;2213;49.720;7.296;2022-10-16T14:34:28;17.60;99.90
4399;DHT22;2213;49.720;7.296;2022-10-16T14:37:20;17.60;99.90
4399;DHT22;2213;49.720;7.296;2022-10-16T14:40:14;17.50;99.90
4399;DHT22;2213;49.720;7.296;2022-10-16T14:42:45;17.50;99.90
4399;DHT22;2213;49.720;7.296;2022-10-16T14:45:19;17.50;99.90
4399;DHT22;2213;49.720;7.296;2022-10-16T14:47:54;17.50;99.90
4399;DHT22;2213;49.720;7.296;2022-10-16T14:50:25;17.50;99.90
4399;DHT22;2213;49.720;7.296;2022-10-16T14:52:56;17.50;99.90
4399;DHT22;2213;49.720;7.296;2022-10-16T14:55:27;17.50;99.90
4399;DHT22;2213;49.720;7.296;2022-10-16T14:57:56;17.50;99.90
4399;DHT22;2213;49.720;7.296;2022-10-16T15:00:27;17.50;99.90
4399;DHT22;2213;49.720;7.296;2022-10-16T15:03:09;17.50;99.90
4399;DHT22;2213;49.720;7.296;2022-10-16T15:05:39;17.40;99.90
4399;DHT22;2213;49.720;7.296;2022-10-16T15:08:14;17.40;99.90
4399;DHT22;2213;49.720;7.296;2022-10-16T15:10:44;17.40;99.90
4399;DHT22;2213;49.720;7.296;2022-10-16T15:13:13;17.50;99.90
4399;DHT22;2213;49.720;7.296;2022-10-16T15:15:44;17.40;99.90
4399;DHT22;2213;49.720;7.296;2022-10-16T15:18:14;17.40;99.90
4399;DHT22;2213;49.720;7.296;2022-10-16T15:20:49;17.50;99.90
4399;DHT22;2213;49.720;7.296;2022-10-16T15:23:22;17.50;99.90
4399;DHT22;2213;49.720;7.296;2022-10-16T15:25:53;17.50;99.90
4399;DHT22;2213;49.720;7.296;2022-10-16T15:28:24;17.50;99.90
4399;DHT22;2213;49.720;7.296;2022-10-16T15:30:54;17.50;99.90
4399;DHT22;2213;49.720;7.296;2022-10-16T15:33:27;17.50;99.90
4399;DHT22;2213;49.720;7.296;2022-10-16T15:36:06;17.50;99.90
4399;DHT22;2213;49.720;7.296;2022-10-16T15:38:37;17.40;99.90
4399;DHT22;2213;49.720;7.296;2022-10-16T15:41:06;17.40;99.90
4399;DHT22;2213;49.720;7.296;2022-10-16T15:43:36;17.40;99.90
4399;DHT22;2213;49.720;7.296;2022-10-16T15:46:10;17.40;99.90
4399;DHT22;2213;49.720;7.296;2022-10-16T15:48:47;17.40;99.90
4399;DHT22;2213;49.720;7.296;2022-10-16T15:51:17;17.40;99.90
4399;DHT22;2213;49.720;7.296;2022-10-16T15:53:48;17.40;99.90
4399;DHT22;2213;49.720;7.296;2022-10-16T15:56:18;17.30;99.90
4399;DHT22;2213;49.720;7.296;2022-10-16T15:58:49;17.30;99.90
4399;DHT22;2213;49.720;7.296;2022-10-16T16:01:17;17.30;99.90
4399;DHT22;2213;49.720;7.296;2022-10-16T16:03:46;17.30;99.90
4399;DHT22;2213;49.720;7.296;2022-10-16T16:06:16;17.30;99.90
4399;DHT22;2213;49.720;7.296;2022-10-16T16:08:45;17.20;99.90
4399;DHT22;2213;49.720;7.296;2022-10-16T16:11:18;17.20;99.90
4399;DHT22;2213;49.720;7.296;2022-10-16T16:13:47;17.20;99.90
4399;DHT22;2213;49.720;7.296;2022-10-16T16:16:17;17.20;99.90
4399;DHT22;2213;49.720;7.296;2022-10-16T16:18:47;17.10;99.90
4399;DHT22;2213;49.720;7.296;2022-10-16T16:21:17;17.10;99.90
4399;DHT22;2213;49.720;7.296;2022-10-16T16:23:46;17.10;99.90
4399;DHT22;2213;49.720;7.296;2022-10-16T16:26:23;17.10;99.90
4399;DHT22;2213;49.720;7.296;2022-10-16T16:28:54;17.10;99.90
4399;DHT22;2213;49.720;7.296;2022-10-16T16:31:25;17.00;99.90
4399;DHT22;2213;49.720;7.296;2022-10-16T16:33:55;17.00;99.90
4399;DHT22;2213;49.720;7.296;2022-10-16T16:36:25;16.90;99.90
4399;DHT22;2213;49.720;7.296;2022-10-16T16:38:54;16.90;99.90
4399;DHT22;2213;49.720;7.296;2022-10-16T16:41:26;16.90;99.90
4399;DHT22;2213;49.720;7.296;2022-10-16T16:44:01;16.90;99.90
4399;DHT22;2213;49.720;7.296;2022-10-16T16:46:34;16.80;99.90
4399;DHT22;2213;49.720;7.296;2022-10-16T16:49:04;16.90;99.90
4399;DHT22;2213;49.720;7.296;2022-10-16T16:51:34;16.80;99.90
4399;DHT22;2213;49.720;7.296;2022-10-16T16:54:07;16.70;99.90
4399;DHT22;2213;49.720;7.296;2022-10-16T16:56:38;16.70;99.90